| time (UTC) | temp F | wind direction | speed knots | gust knots | rain 1hr in | rain 24hr in | rain mn in | humidity % | barometer mb |
| 20260509053654 | 67 | 209 | 0.0 | 0.0 | 0.00 | 0.00 | 0.00 | 99 | 1015.7 |
| 20260509053150 | 67 | 177 | 0.0 | 0.0 | 0.00 | 0.00 | 0.00 | 99 | 1015.6 |
| 20260509052648 | 67 | 218 | 0.0 | 0.0 | 0.00 | 0.00 | 0.00 | 99 | 1016.0 |
| 20260509052145 | 68 | 218 | 0.0 | 0.0 | 0.00 | 0.00 | 0.00 | 99 | 1015.7 |
| 20260509051643 | 67 | 241 | 0.0 | 0.0 | 0.00 | 0.00 | 0.00 | 99 | 1016.0 |
| 20260509051140 | 67 | 217 | 0.0 | 0.0 | 0.00 | 0.00 | 0.00 | 99 | 1015.8 |
| 20260509050637 | 67 | 227 | 0.0 | 0.0 | 0.00 | 0.00 | 0.00 | 99 | 1016.0 |
| 20260509050133 | 66 | 214 | 0.0 | 0.0 | 0.00 | 0.00 | 0.00 | 99 | 1016.2 |
| 20260509045631 | 67 | 225 | 0.0 | 0.0 | 0.00 | 0.00 | 0.00 | 99 | 1016.3 |
| 20260509045128 | 67 | 300 | 0.0 | 0.0 | 0.00 | 0.00 | 0.00 | 99 | 1016.1 |
| 20260509044625 | 66 | 320 | 0.9 | 0.9 | 0.00 | 0.00 | 0.00 | 99 | 1015.9 |
| 20260509044122 | 67 | 140 | 0.0 | 0.0 | 0.00 | 0.00 | 0.00 | 99 | 1015.5 |
| 20260509043618 | 67 | 103 | 0.0 | 0.0 | 0.00 | 0.00 | 0.00 | 99 | 1015.3 |
| 20260509043114 | 67 | 234 | 0.0 | 0.0 | 0.00 | 0.00 | 0.00 | 98 | 1015.1 |
| 20260509042611 | 67 | 171 | 0.0 | 0.0 | 0.00 | 0.00 | 0.00 | 98 | 1014.9 |
| 20260509042106 | 67 | 89 | 0.0 | 0.9 | 0.00 | 0.00 | 0.00 | 98 | 1015.0 |
| 20260509041604 | 67 | 194 | 0.0 | 0.0 | 0.00 | 0.00 | 0.00 | 98 | 1015.1 |
| 20260509041101 | 67 | 115 | 0.0 | 0.0 | 0.00 | 0.00 | 0.00 | 98 | 1015.2 |
| 20260509040600 | 67 | 344 | 0.9 | 0.9 | 0.00 | 0.00 | 0.00 | 98 | 1014.6 |
| 20260509040056 | 67 | 218 | 3.5 | 5.2 | 0.00 | 0.00 | 0.00 | 98 | 1014.0 |
| 20260509035553 | 67 | 187 | 1.7 | 2.6 | 0.00 | 0.00 | 0.00 | 97 | 1014.3 |
| 20260509035049 | 67 | 207 | 1.7 | 2.6 | 0.00 | 0.00 | 0.00 | 97 | 1014.1 |
| 20260509034548 | 67 | 209 | 2.6 | 2.6 | 0.00 | 0.00 | 0.00 | 96 | 1014.2 |
| 20260509034044 | 68 | 218 | 4.3 | 6.1 | 0.00 | 0.00 | 0.00 | 92 | 1014.6 |
| 20260509033542 | 69 | 225 | 3.5 | 5.2 | 0.00 | 0.00 | 0.00 | 90 | 1015.2 |
| 20260509033038 | 71 | 208 | 2.6 | 2.6 | 0.00 | 0.00 | 0.00 | 84 | 1015.3 |
| 20260509032536 | 71 | 218 | 1.7 | 1.7 | 0.00 | 0.00 | 0.00 | 80 | 1015.8 |
| 20260509032033 | 71 | 220 | 1.7 | 1.7 | 0.00 | 0.00 | 0.00 | 80 | 1015.3 |
| 20260509031530 | 71 | 191 | 0.0 | 0.0 | 0.00 | 0.00 | 0.00 | 80 | 1015.4 |
| 20260509031027 | 71 | 166 | 0.0 | 0.0 | 0.00 | 0.00 | 0.00 | 80 | 1015.2 |
| 20260509030526 | 71 | 121 | 0.0 | 0.0 | 0.00 | 0.00 | 0.00 | 80 | 1015.2 |
| 20260509030022 | 71 | 137 | 0.0 | 0.0 | 0.00 | 0.00 | 0.00 | 79 | 1015.3 |
| 20260509025518 | 71 | 148 | 0.0 | 0.0 | 0.00 | 0.00 | 0.00 | 79 | 1015.4 |
| 20260509025014 | 71 | 154 | 0.0 | 0.0 | 0.00 | 0.00 | 0.00 | 79 | 1015.3 |
| 20260509024509 | 71 | 91 | 0.0 | 0.9 | 0.00 | 0.00 | 0.00 | 79 | 1015.2 |
| 20260509024006 | 71 | 103 | 0.9 | 0.9 | 0.00 | 0.00 | 0.00 | 79 | 1015.0 |
| 20260509023504 | 71 | 68 | 0.0 | 0.0 | 0.00 | 0.00 | 0.00 | 79 | 1015.1 |
| 20260509023001 | 71 | 60 | 0.0 | 0.9 | 0.00 | 0.00 | 0.00 | 80 | 1014.9 |
| 20260509022457 | 71 | 65 | 0.9 | 1.7 | 0.00 | 0.00 | 0.00 | 80 | 1014.7 |
| 20260509021955 | 71 | 229 | 0.9 | 0.9 | 0.00 | 0.00 | 0.00 | 80 | 1014.6 |
| 20260509021452 | 71 | 172 | 0.0 | 0.0 | 0.00 | 0.00 | 0.00 | 80 | 1014.3 |
| 20260509020949 | 71 | 129 | 0.9 | 1.7 | 0.00 | 0.00 | 0.00 | 79 | 1014.1 |
| 20260509020447 | 71 | 196 | 1.7 | 1.7 | 0.00 | 0.00 | 0.00 | 79 | 1014.0 |
| 20260509015944 | 71 | 93 | 0.9 | 1.7 | 0.00 | 0.00 | 0.00 | 79 | 1014.1 |
| 20260509015443 | 71 | 188 | 0.0 | 0.0 | 0.00 | 0.00 | 0.00 | 78 | 1013.9 |
| 20260509014939 | 71 | 190 | 0.0 | 0.0 | 0.00 | 0.00 | 0.00 | 78 | 1014.1 |
| 20260509014436 | 71 | 197 | 0.9 | 1.7 | 0.00 | 0.00 | 0.00 | 78 | 1014.0 |
| 20260509013932 | 72 | 171 | 0.9 | 0.9 | 0.00 | 0.00 | 0.00 | 77 | 1014.1 |
| 20260509013429 | 72 | 207 | 0.9 | 0.9 | 0.00 | 0.00 | 0.00 | 77 | 1013.8 |
| 20260509012924 | 72 | 204 | 0.9 | 1.7 | 0.00 | 0.00 | 0.00 | 77 | 1013.7 |
| 20260509012421 | 72 | 201 | 0.9 | 1.7 | 0.00 | 0.00 | 0.00 | 76 | 1013.8 |
| 20260509011919 | 72 | 114 | 0.9 | 0.9 | 0.00 | 0.00 | 0.00 | 76 | 1013.8 |
| 20260509011416 | 72 | 210 | 1.7 | 1.7 | 0.00 | 0.00 | 0.00 | 76 | 1013.8 |
| 20260509010914 | 72 | 182 | 0.9 | 0.9 | 0.00 | 0.00 | 0.00 | 75 | 1013.8 |
| 20260509010411 | 73 | 194 | 1.7 | 2.6 | 0.00 | 0.00 | 0.00 | 75 | 1013.8 |
| 20260509005907 | 73 | 207 | 0.9 | 0.9 | 0.00 | 0.00 | 0.00 | 75 | 1013.7 |
| 20260509005406 | 73 | 190 | 0.9 | 0.9 | 0.00 | 0.00 | 0.00 | 74 | 1013.7 |
| 20260509004906 | 73 | 85 | 0.9 | 1.7 | 0.00 | 0.00 | 0.00 | 74 | 1013.7 |
| 20260509004402 | 73 | 193 | 0.0 | 0.0 | 0.00 | 0.00 | 0.00 | 73 | 1013.6 |
| 20260509003900 | 73 | 229 | 1.7 | 1.7 | 0.00 | 0.00 | 0.00 | 73 | 1013.5 |
| 20260509003358 | 73 | 234 | 0.9 | 1.7 | 0.00 | 0.00 | 0.00 | 73 | 1013.4 |
| 20260509002854 | 73 | 250 | 1.7 | 2.6 | 0.00 | 0.00 | 0.00 | 73 | 1013.3 |
| 20260509002352 | 73 | 207 | 1.7 | 2.6 | 0.00 | 0.00 | 0.00 | 73 | 1013.4 |
| 20260509001850 | 74 | 186 | 1.7 | 1.7 | 0.00 | 0.00 | 0.00 | 73 | 1013.4 |
| 20260509001345 | 74 | 161 | 0.9 | 0.9 | 0.00 | 0.00 | 0.00 | 72 | 1013.5 |
| 20260509000843 | 74 | 232 | 0.0 | 0.0 | 0.00 | 0.00 | 0.00 | 72 | 1013.4 |
| 20260509000341 | 74 | 225 | 1.7 | 2.6 | 0.00 | 0.00 | 0.00 | 72 | 1013.4 |
| 20260508235836 | 74 | 224 | 1.7 | 3.5 | 0.00 | 0.00 | 0.00 | 71 | 1013.6 |
| 20260508235334 | 75 | 240 | 4.3 | 6.1 | 0.00 | 0.00 | 0.00 | 71 | 1013.4 |
| 20260508234831 | 75 | 203 | 1.7 | 2.6 | 0.00 | 0.00 | 0.00 | 72 | 1013.5 |
| 20260508234327 | 75 | 195 | 0.9 | 1.7 | 0.00 | 0.00 | 0.00 | 71 | 1013.5 |
| 20260508233826 | 75 | 219 | 1.7 | 1.7 | 0.00 | 0.00 | 0.00 | 70 | 1013.5 |
| 20260508233325 | 76 | 208 | 3.5 | 6.1 | 0.00 | 0.00 | 0.00 | 71 | 1013.6 |
| 20260508232821 | 76 | 212 | 3.5 | 5.2 | 0.00 | 0.00 | 0.00 | 70 | 1013.7 |
| 20260508232317 | 76 | 226 | 4.3 | 5.2 | 0.00 | 0.00 | 0.00 | 70 | 1013.6 |
| 20260508231816 | 77 | 223 | 1.7 | 1.7 | 0.00 | 0.00 | 0.00 | 70 | 1013.6 |
| 20260508231312 | 76 | 226 | 1.7 | 1.7 | 0.00 | 0.00 | 0.00 | 70 | 1013.6 |
| 20260508230809 | 77 | 165 | 1.7 | 1.7 | 0.00 | 0.00 | 0.00 | 69 | 1013.6 |
| 20260508230305 | 77 | 168 | 2.6 | 2.6 | 0.00 | 0.00 | 0.00 | 69 | 1013.6 |
| 20260508225803 | 77 | 221 | 1.7 | 2.6 | 0.00 | 0.00 | 0.00 | 68 | 1013.6 |
| 20260508225259 | 77 | 189 | 1.7 | 2.6 | 0.00 | 0.00 | 0.00 | 68 | 1013.7 |
| 20260508224757 | 77 | 229 | 0.9 | 1.7 | 0.00 | 0.00 | 0.00 | 68 | 1013.9 |
| 20260508224254 | 77 | 218 | 2.6 | 3.5 | 0.00 | 0.00 | 0.00 | 68 | 1013.8 |
| 20260508223752 | 77 | 178 | 0.0 | 0.0 | 0.00 | 0.00 | 0.00 | 67 | 1013.9 |
| 20260508223249 | 77 | 214 | 1.7 | 1.7 | 0.00 | 0.00 | 0.00 | 67 | 1013.9 |
| 20260508222746 | 77 | 195 | 0.9 | 0.9 | 0.00 | 0.00 | 0.00 | 67 | 1013.6 |
| 20260508222244 | 77 | 213 | 2.6 | 3.5 | 0.00 | 0.00 | 0.00 | 67 | 1013.8 |
| 20260508221740 | 77 | 195 | 0.9 | 1.7 | 0.00 | 0.00 | 0.00 | 67 | 1013.8 |
| 20260508221236 | 77 | 149 | 1.7 | 2.6 | 0.00 | 0.00 | 0.00 | 65 | 1013.7 |
| 20260508220732 | 77 | 82 | 0.9 | 1.7 | 0.00 | 0.00 | 0.00 | 66 | 1013.7 |
| 20260508220229 | 77 | 215 | 2.6 | 2.6 | 0.00 | 0.00 | 0.00 | 66 | 1013.7 |
| 20260508215725 | 78 | 95 | 0.9 | 2.6 | 0.00 | 0.00 | 0.00 | 64 | 1013.6 |
| 20260508215222 | 77 | 93 | 0.9 | 1.7 | 0.00 | 0.00 | 0.00 | 65 | 1013.5 |
| 20260508214719 | 77 | 212 | 0.0 | 0.9 | 0.00 | 0.00 | 0.00 | 65 | 1013.5 |
| 20260508214217 | 77 | 59 | 1.7 | 1.7 | 0.00 | 0.00 | 0.00 | 65 | 1013.4 |
| 20260508213713 | 78 | 215 | 2.6 | 3.5 | 0.00 | 0.00 | 0.00 | 64 | 1013.4 |
| 20260508213209 | 77 | 124 | 1.7 | 2.6 | 0.00 | 0.00 | 0.00 | 65 | 1013.6 |
| 20260508212706 | 77 | 233 | 1.7 | 2.6 | 0.00 | 0.00 | 0.00 | 65 | 1013.6 |
| 20260508212203 | 78 | 187 | 3.5 | 7.0 | 0.00 | 0.00 | 0.00 | 64 | 1013.7 |
| 20260508211658 | 78 | 212 | 2.6 | 2.6 | 0.00 | 0.00 | 0.00 | 65 | 1014.2 |
| 20260508211154 | 77 | 187 | 4.3 | 5.2 | 0.00 | 0.00 | 0.00 | 64 | 1014.1 |
| 20260508210651 | 77 | 219 | 3.5 | 6.1 | 0.00 | 0.00 | 0.00 | 64 | 1014.4 |
| 20260508210149 | 78 | 216 | 1.7 | 3.5 | 0.00 | 0.00 | 0.00 | 63 | 1014.5 |
| 20260508205646 | 78 | 202 | 3.5 | 3.5 | 0.00 | 0.00 | 0.00 | 64 | 1014.7 |
| 20260508205142 | 78 | 221 | 3.5 | 5.2 | 0.00 | 0.00 | 0.00 | 62 | 1014.7 |
| 20260508204638 | 78 | 202 | 3.5 | 5.2 | 0.00 | 0.00 | 0.00 | 63 | 1014.7 |
| 20260508204134 | 78 | 133 | 3.5 | 5.2 | 0.00 | 0.00 | 0.00 | 63 | 1015.1 |
| 20260508203631 | 78 | 193 | 3.5 | 5.2 | 0.00 | 0.00 | 0.00 | 63 | 1015.0 |
| 20260508203127 | 78 | 170 | 0.9 | 1.7 | 0.00 | 0.00 | 0.00 | 63 | 1015.0 |
| 20260508202623 | 78 | 112 | 1.7 | 1.7 | 0.00 | 0.00 | 0.00 | 63 | 1015.1 |
| 20260508202120 | 78 | 172 | 3.5 | 3.5 | 0.00 | 0.00 | 0.00 | 62 | 1015.0 |
| 20260508201617 | 78 | 56 | 1.7 | 2.6 | 0.00 | 0.00 | 0.00 | 62 | 1015.2 |
| 20260508201114 | 78 | 158 | 3.5 | 5.2 | 0.00 | 0.00 | 0.00 | 61 | 1015.2 |
| 20260508200611 | 79 | 60 | 1.7 | 2.6 | 0.00 | 0.00 | 0.00 | 61 | 1015.4 |
| 20260508200107 | 80 | 220 | 2.6 | 2.6 | 0.00 | 0.00 | 0.00 | 58 | 1015.4 |
| 20260508195603 | 80 | 64 | 1.7 | 2.6 | 0.00 | 0.00 | 0.00 | 58 | 1015.5 |
| 20260508195100 | 80 | 352 | 1.7 | 1.7 | 0.00 | 0.00 | 0.00 | 57 | 1015.4 |
| 20260508194556 | 79 | 145 | 0.9 | 1.7 | 0.00 | 0.00 | 0.00 | 58 | 1015.8 |
| 20260508194054 | 79 | 160 | 1.7 | 2.6 | 0.00 | 0.00 | 0.00 | 59 | 1015.4 |
| 20260508193550 | 79 | 209 | 2.6 | 3.5 | 0.00 | 0.00 | 0.00 | 57 | 1015.7 |
| 20260508193047 | 79 | 196 | 3.5 | 3.5 | 0.00 | 0.00 | 0.00 | 58 | 1015.5 |
| 20260508192544 | 79 | 84 | 0.0 | 0.9 | 0.00 | 0.00 | 0.00 | 59 | 1015.7 |
| 20260508192041 | 79 | 214 | 3.5 | 5.2 | 0.00 | 0.00 | 0.00 | 59 | 1015.6 |
| 20260508191537 | 79 | 193 | 1.7 | 2.6 | 0.00 | 0.00 | 0.00 | 59 | 1015.8 |
| 20260508191034 | 80 | 230 | 1.7 | 2.6 | 0.00 | 0.00 | 0.00 | 57 | 1015.7 |
| 20260508190531 | 79 | 103 | 0.9 | 1.7 | 0.00 | 0.00 | 0.00 | 59 | 1015.7 |
| 20260508190028 | 80 | 36 | 1.7 | 2.6 | 0.00 | 0.00 | 0.00 | 58 | 1015.7 |
| 20260508185525 | 80 | 152 | 2.6 | 3.5 | 0.00 | 0.00 | 0.00 | 57 | 1015.8 |
| 20260508185023 | 78 | 102 | 1.7 | 1.7 | 0.00 | 0.00 | 0.00 | 59 | 1016.1 |
| 20260508184520 | 79 | 211 | 0.9 | 1.7 | 0.00 | 0.00 | 0.00 | 56 | 1016.0 |
| 20260508184017 | 78 | 315 | 0.0 | 0.9 | 0.00 | 0.00 | 0.00 | 57 | 1016.2 |
| 20260508183513 | 80 | 298 | 1.7 | 2.6 | 0.00 | 0.00 | 0.00 | 57 | 1016.1 |
| 20260508183009 | 80 | 241 | 0.9 | 0.9 | 0.00 | 0.00 | 0.00 | 56 | 1016.2 |
| 20260508182506 | 78 | 143 | 1.7 | 2.6 | 0.00 | 0.00 | 0.00 | 57 | 1016.4 |
| 20260508182002 | 77 | 251 | 1.7 | 1.7 | 0.00 | 0.00 | 0.00 | 60 | 1016.4 |
| 20260508181457 | 78 | 214 | 0.0 | 0.9 | 0.00 | 0.00 | 0.00 | 56 | 1016.7 |
| 20260508180955 | 80 | 234 | 1.7 | 2.6 | 0.00 | 0.00 | 0.00 | 57 | 1016.7 |
| 20260508180452 | 79 | 197 | 0.9 | 0.9 | 0.00 | 0.00 | 0.00 | 58 | 1016.6 |
| 20260508175948 | 77 | 207 | 1.7 | 1.7 | 0.00 | 0.00 | 0.00 | 61 | 1016.8 |
| 20260508175444 | 78 | 87 | 2.6 | 5.2 | 0.00 | 0.00 | 0.00 | 59 | 1017.0 |
| 20260508174942 | 78 | 239 | 0.0 | 0.9 | 0.00 | 0.00 | 0.00 | 59 | 1016.9 |
| 20260508174440 | 78 | 208 | 0.9 | 1.7 | 0.00 | 0.00 | 0.00 | 58 | 1017.0 |
| 20260508173937 | 78 | 78 | 1.7 | 2.6 | 0.00 | 0.00 | 0.00 | 58 | 1017.2 |
| 20260508173434 | 78 | 96 | 3.5 | 3.5 | 0.00 | 0.00 | 0.00 | 56 | 1017.2 |
| 20260508172929 | 78 | 137 | 0.9 | 1.7 | 0.00 | 0.00 | 0.00 | 58 | 1017.4 |
| 20260508172427 | 75 | 89 | 0.0 | 0.0 | 0.00 | 0.00 | 0.00 | 60 | 1017.5 |
| 20260508171923 | 74 | 128 | 2.6 | 3.5 | 0.00 | 0.00 | 0.00 | 62 | 1017.6 |
| 20260508171419 | 75 | 227 | 1.7 | 2.6 | 0.00 | 0.00 | 0.00 | 61 | 1018.0 |
| 20260508170916 | 74 | 189 | 2.6 | 2.6 | 0.00 | 0.00 | 0.00 | 63 | 1017.9 |
| 20260508170414 | 75 | 226 | 2.6 | 2.6 | 0.00 | 0.00 | 0.00 | 63 | 1017.9 |
| 20260508165910 | 74 | 213 | 0.9 | 0.9 | 0.00 | 0.00 | 0.00 | 62 | 1018.0 |
| 20260508165408 | 73 | 196 | 0.0 | 0.9 | 0.00 | 0.00 | 0.00 | 63 | 1018.3 |
| 20260508164904 | 72 | 218 | 1.7 | 2.6 | 0.00 | 0.00 | 0.00 | 67 | 1018.1 |
| 20260508164401 | 71 | 189 | 0.9 | 2.6 | 0.00 | 0.00 | 0.00 | 67 | 1018.3 |
| 20260508163858 | 70 | 212 | 0.0 | 0.9 | 0.00 | 0.00 | 0.00 | 71 | 1018.4 |
| 20260508163356 | 69 | 220 | 2.6 | 3.5 | 0.00 | 0.00 | 0.00 | 71 | 1018.5 |
| 20260508162851 | 69 | 190 | 1.7 | 2.6 | 0.00 | 0.00 | 0.00 | 71 | 1018.8 |
| 20260508162349 | 69 | 216 | 1.7 | 2.6 | 0.00 | 0.00 | 0.00 | 74 | 1018.7 |
| 20260508161846 | 68 | 129 | 1.7 | 1.7 | 0.00 | 0.00 | 0.00 | 74 | 1019.1 |
| 20260508161343 | 68 | 213 | 0.9 | 1.7 | 0.00 | 0.00 | 0.00 | 76 | 1018.9 |
| 20260508160840 | 68 | 177 | 1.7 | 2.6 | 0.00 | 0.00 | 0.00 | 74 | 1019.1 |
| 20260508160339 | 67 | 131 | 0.9 | 0.9 | 0.00 | 0.00 | 0.00 | 76 | 1019.0 |
| 20260508155835 | 67 | 223 | 1.7 | 1.7 | 0.00 | 0.00 | 0.00 | 76 | 1019.0 |
| 20260508155332 | 67 | 189 | 2.6 | 2.6 | 0.00 | 0.00 | 0.00 | 76 | 1019.0 |
| 20260508154829 | 67 | 187 | 1.7 | 3.5 | 0.00 | 0.00 | 0.00 | 79 | 1019.1 |
| 20260508154327 | 66 | 133 | 0.9 | 0.9 | 0.00 | 0.00 | 0.00 | 81 | 1019.5 |
| 20260508153823 | 67 | 166 | 0.9 | 0.9 | 0.00 | 0.00 | 0.00 | 79 | 1019.3 |
| 20260508153321 | 66 | 196 | 0.0 | 0.0 | 0.00 | 0.00 | 0.00 | 80 | 1019.3 |
| 20260508152816 | 67 | 159 | 1.7 | 2.6 | 0.00 | 0.00 | 0.00 | 79 | 1019.1 |
| 20260508152313 | 67 | 217 | 0.9 | 1.7 | 0.00 | 0.00 | 0.00 | 80 | 1019.3 |
| 20260508151809 | 66 | 192 | 0.9 | 1.7 | 0.00 | 0.00 | 0.00 | 81 | 1019.2 |
| 20260508151306 | 65 | 198 | 1.7 | 1.7 | 0.00 | 0.00 | 0.00 | 81 | 1019.3 |
| 20260508150802 | 64 | 221 | 0.9 | 0.9 | 0.00 | 0.00 | 0.00 | 83 | 1019.4 |
| 20260508150259 | 63 | 163 | 0.0 | 0.0 | 0.00 | 0.00 | 0.00 | 89 | 1019.4 |
| 20260508145755 | 62 | 176 | 0.0 | 0.0 | 0.00 | 0.00 | 0.00 | 95 | 1019.1 |
| 20260508145251 | 61 | 144 | 0.0 | 0.9 | 0.00 | 0.00 | 0.00 | 98 | 1019.4 |
| 20260508144748 | 62 | 124 | 0.0 | 0.0 | 0.00 | 0.00 | 0.00 | 99 | 1019.6 |
| 20260508144247 | 61 | 212 | 0.0 | 0.9 | 0.00 | 0.00 | 0.00 | 99 | 1019.7 |
| 20260508143744 | 61 | 135 | 0.0 | 0.9 | 0.00 | 0.00 | 0.00 | 99 | 1019.7 |
| 20260508143241 | 61 | 135 | 1.7 | 1.7 | 0.00 | 0.00 | 0.00 | 99 | 1019.6 |
| 20260508142737 | 62 | 29 | 2.6 | 3.5 | 0.00 | 0.00 | 0.00 | 99 | 1019.5 |
| 20260508142234 | 61 | 124 | 0.0 | 0.9 | 0.00 | 0.00 | 0.00 | 99 | 1019.5 |
| 20260508141730 | 62 | 102 | 0.9 | 0.9 | 0.00 | 0.00 | 0.00 | 99 | 1019.7 |
| 20260508141228 | 62 | 195 | 0.0 | 0.0 | 0.00 | 0.00 | 0.00 | 99 | 1019.8 |
| 20260508140725 | 62 | 289 | 0.0 | 0.0 | 0.00 | 0.00 | 0.00 | 99 | 1019.7 |
| 20260508140222 | 62 | 198 | 0.0 | 0.0 | 0.00 | 0.00 | 0.00 | 99 | 1019.6 |
| 20260508135718 | 61 | 201 | 0.0 | 0.0 | 0.00 | 0.00 | 0.00 | 99 | 1019.8 |
| 20260508135214 | 62 | 43 | 0.0 | 0.0 | 0.00 | 0.00 | 0.00 | 99 | 1019.7 |
| 20260508134710 | 61 | 133 | 0.0 | 0.0 | 0.00 | 0.00 | 0.00 | 99 | 1019.7 |
| 20260508134207 | 62 | 159 | 0.0 | 0.0 | 0.00 | 0.00 | 0.00 | 99 | 1019.7 |
| 20260508133704 | 62 | 169 | 0.0 | 0.0 | 0.00 | 0.00 | 0.00 | 99 | 1020.1 |
| 20260508133202 | 62 | 116 | 0.0 | 0.0 | 0.00 | 0.00 | 0.00 | 99 | 1020.1 |
| 20260508132659 | 61 | 264 | 0.0 | 0.0 | 0.00 | 0.00 | 0.00 | 99 | 1019.7 |
| 20260508132156 | 60 | 201 | 0.9 | 0.9 | 0.00 | 0.00 | 0.00 | 99 | 1019.6 |
| 20260508131652 | 61 | 209 | 0.9 | 0.9 | 0.00 | 0.00 | 0.00 | 99 | 1019.5 |
| 20260508131148 | 61 | 213 | 0.9 | 0.9 | 0.00 | 0.00 | 0.00 | 99 | 1019.3 |
| 20260508130645 | 60 | 102 | 0.0 | 0.0 | 0.00 | 0.00 | 0.00 | 99 | 1019.2 |
| 20260508130142 | 60 | 196 | 0.0 | 0.0 | 0.00 | 0.00 | 0.00 | 99 | 1019.7 |
| 20260508125638 | 59 | 191 | 0.0 | 0.0 | 0.00 | 0.00 | 0.00 | 99 | 1019.5 |
| 20260508125135 | 59 | 125 | 0.0 | 0.0 | 0.00 | 0.00 | 0.00 | 99 | 1019.8 |
| 20260508124633 | 59 | 121 | 0.9 | 0.9 | 0.00 | 0.00 | 0.00 | 99 | 1019.9 |
| 20260508124129 | 59 | 235 | 0.0 | 0.0 | 0.00 | 0.00 | 0.00 | 99 | 1020.4 |
| 20260508123628 | 59 | 214 | 0.0 | 0.0 | 0.00 | 0.00 | 0.00 | 99 | 1020.0 |
| 20260508123125 | 59 | 108 | 0.0 | 0.0 | 0.00 | 0.00 | 0.00 | 99 | 1020.1 |
| 20260508122621 | 59 | 120 | 0.0 | 0.0 | 0.00 | 0.00 | 0.00 | 99 | 1019.9 |
| 20260508122119 | 58 | 190 | 0.0 | 0.0 | 0.00 | 0.00 | 0.00 | 99 | 1019.9 |
| 20260508121617 | 59 | 148 | 0.0 | 0.0 | 0.00 | 0.00 | 0.00 | 99 | 1019.9 |
| 20260508121115 | 59 | 111 | 0.0 | 0.0 | 0.00 | 0.00 | 0.00 | 99 | 1020.2 |
| 20260508120611 | 58 | 2 | 0.0 | 0.0 | 0.00 | 0.00 | 0.00 | 99 | 1019.9 |
| 20260508120110 | 58 | 186 | 0.0 | 0.0 | 0.00 | 0.00 | 0.00 | 99 | 1019.8 |
| 20260508115607 | 58 | 103 | 0.9 | 0.9 | 0.00 | 0.00 | 0.00 | 99 | 1019.8 |
| 20260508115104 | 58 | 241 | 0.0 | 0.0 | 0.00 | 0.00 | 0.00 | 99 | 1020.2 |
| 20260508114601 | 58 | 190 | 0.0 | 0.0 | 0.00 | 0.00 | 0.00 | 99 | 1019.5 |
| 20260508114056 | 58 | 198 | 0.0 | 0.0 | 0.00 | 0.00 | 0.00 | 99 | 1019.4 |
| 20260508113554 | 58 | 186 | 1.7 | 2.6 | 0.00 | 0.00 | 0.00 | 99 | 1019.6 |
| 20260508113052 | 57 | 163 | 1.7 | 1.7 | 0.00 | 0.00 | 0.00 | 98 | 1019.8 |
| 20260508112548 | 57 | 117 | 0.9 | 0.9 | 0.00 | 0.00 | 0.00 | 98 | 1019.3 |
| 20260508112045 | 58 | 154 | 1.7 | 2.6 | 0.00 | 0.00 | 0.00 | 98 | 1019.2 |
| 20260508111542 | 59 | 186 | 0.9 | 1.7 | 0.00 | 0.00 | 0.00 | 98 | 1019.4 |
| 20260508111039 | 59 | 188 | 1.7 | 1.7 | 0.00 | 0.00 | 0.00 | 98 | 1019.5 |
| 20260508110537 | 59 | 216 | 0.9 | 0.9 | 0.00 | 0.00 | 0.00 | 98 | 1019.8 |
| 20260508110033 | 59 | 179 | 0.9 | 0.9 | 0.00 | 0.00 | 0.00 | 98 | 1019.7 |
| 20260508105528 | 59 | 191 | 0.0 | 0.0 | 0.00 | 0.00 | 0.00 | 97 | 1020.0 |
| 20260508105025 | 60 | 194 | 0.9 | 0.9 | 0.00 | 0.00 | 0.00 | 95 | 1020.0 |
| 20260508104523 | 60 | 211 | 0.0 | 0.0 | 0.00 | 0.00 | 0.00 | 93 | 1020.5 |
| 20260508104019 | 60 | 227 | 0.0 | 0.9 | 0.00 | 0.00 | 0.00 | 93 | 1020.1 |
| 20260508103516 | 60 | 197 | 0.9 | 0.9 | 0.00 | 0.00 | 0.00 | 92 | 1019.8 |
| 20260508103013 | 61 | 199 | 0.0 | 0.0 | 0.00 | 0.00 | 0.00 | 90 | 1019.4 |
| 20260508102511 | 61 | 292 | 0.0 | 0.9 | 0.00 | 0.00 | 0.00 | 89 | 1020.3 |
| 20260508102009 | 61 | 166 | 1.7 | 2.6 | 0.00 | 0.00 | 0.00 | 89 | 1020.1 |
| 20260508101506 | 60 | 353 | 0.9 | 0.9 | 0.00 | 0.00 | 0.00 | 89 | 1018.5 |
| 20260508101003 | 60 | 109 | 0.0 | 0.9 | 0.00 | 0.00 | 0.00 | 88 | 1018.7 |
| 20260508100501 | 60 | 175 | 0.0 | 0.0 | 0.00 | 0.00 | 0.00 | 88 | 1018.4 |
| 20260508095956 | 60 | 196 | 0.0 | 0.0 | 0.00 | 0.00 | 0.00 | 88 | 1018.7 |
| 20260508095455 | 60 | 179 | 0.0 | 0.9 | 0.00 | 0.00 | 0.00 | 88 | 1019.0 |
| 20260508094951 | 60 | 245 | 0.9 | 0.9 | 0.00 | 0.00 | 0.00 | 88 | 1018.7 |
| 20260508094448 | 60 | 170 | 0.0 | 0.0 | 0.00 | 0.00 | 0.00 | 88 | 1018.4 |
| 20260508093945 | 60 | 214 | 0.0 | 0.0 | 0.00 | 0.00 | 0.00 | 88 | 1018.5 |
| 20260508093442 | 60 | 194 | 0.0 | 0.9 | 0.00 | 0.00 | 0.00 | 88 | 1018.9 |
| 20260508092940 | 60 | 213 | 0.9 | 0.9 | 0.00 | 0.00 | 0.00 | 88 | 1018.7 |
| 20260508092437 | 60 | 171 | 0.0 | 0.0 | 0.00 | 0.00 | 0.00 | 88 | 1018.8 |
| 20260508091936 | 60 | 196 | 0.9 | 1.7 | 0.00 | 0.00 | 0.00 | 88 | 1018.9 |
| 20260508091433 | 60 | 239 | 0.0 | 0.0 | 0.00 | 0.00 | 0.00 | 89 | 1019.0 |
| 20260508090930 | 60 | 236 | 0.0 | 0.9 | 0.00 | 0.00 | 0.00 | 89 | 1018.9 |
| 20260508090429 | 60 | 112 | 0.9 | 0.9 | 0.00 | 0.00 | 0.00 | 89 | 1019.1 |
| 20260508085924 | 60 | 143 | 0.9 | 0.9 | 0.00 | 0.00 | 0.00 | 88 | 1019.5 |
| 20260508085421 | 60 | 276 | 0.9 | 0.9 | 0.00 | 0.00 | 0.00 | 87 | 1019.6 |
| 20260508084918 | 61 | 189 | 0.0 | 0.0 | 0.00 | 0.00 | 0.00 | 86 | 1019.6 |
| 20260508084414 | 61 | 195 | 0.0 | 0.0 | 0.00 | 0.00 | 0.00 | 86 | 1019.6 |
| 20260508083912 | 61 | 245 | 1.7 | 1.7 | 0.00 | 0.00 | 0.00 | 85 | 1019.5 |
| 20260508083410 | 61 | 186 | 0.0 | 0.0 | 0.00 | 0.00 | 0.00 | 84 | 1019.3 |
| 20260508082908 | 61 | 148 | 0.0 | 0.0 | 0.00 | 0.00 | 0.00 | 84 | 1019.3 |
| 20260508082406 | 61 | 213 | 0.9 | 1.7 | 0.00 | 0.00 | 0.00 | 84 | 1019.7 |
| 20260508081903 | 61 | 170 | 0.9 | 0.9 | 0.00 | 0.00 | 0.00 | 84 | 1019.0 |
| 20260508081400 | 61 | 181 | 0.0 | 0.0 | 0.00 | 0.00 | 0.00 | 84 | 1019.5 |
| 20260508080856 | 61 | 69 | 0.0 | 0.0 | 0.00 | 0.00 | 0.00 | 83 | 1019.6 |
| 20260508080355 | 61 | 181 | 0.0 | 0.0 | 0.00 | 0.00 | 0.00 | 83 | 1020.0 |
| 20260508075851 | 61 | 172 | 0.0 | 0.0 | 0.00 | 0.00 | 0.00 | 83 | 1020.3 |
| 20260508075348 | 61 | 198 | 0.0 | 0.0 | 0.00 | 0.00 | 0.00 | 83 | 1020.7 |
| 20260508074846 | 61 | 198 | 0.0 | 0.0 | 0.00 | 0.00 | 0.00 | 85 | 1020.5 |
| 20260508074343 | 61 | 201 | 0.0 | 0.0 | 0.00 | 0.00 | 0.00 | 85 | 1020.5 |
| 20260508073840 | 61 | 216 | 0.0 | 0.0 | 0.00 | 0.00 | 0.00 | 85 | 1020.5 |
| 20260508073338 | 61 | 232 | 0.0 | 0.0 | 0.00 | 0.00 | 0.00 | 86 | 1020.5 |
| 20260508072834 | 61 | 196 | 0.0 | 0.0 | 0.00 | 0.00 | 0.00 | 86 | 1019.9 |
| 20260508072331 | 61 | 205 | 0.0 | 0.0 | 0.00 | 0.00 | 0.00 | 86 | 1019.9 |
| 20260508071828 | 60 | 155 | 0.0 | 0.0 | 0.00 | 0.00 | 0.00 | 86 | 1020.1 |
| 20260508071326 | 60 | 186 | 0.0 | 0.0 | 0.00 | 0.00 | 0.00 | 86 | 1020.0 |
| 20260508070823 | 60 | 185 | 0.0 | 0.0 | 0.00 | 0.00 | 0.00 | 86 | 1020.1 |
| 20260508070322 | 60 | 192 | 0.0 | 0.0 | 0.00 | 0.00 | 0.00 | 86 | 1020.2 |
| 20260508065819 | 59 | 110 | 0.0 | 0.0 | 0.00 | 0.00 | 0.00 | 85 | 1020.3 |
| 20260508065317 | 60 | 96 | 0.0 | 0.0 | 0.00 | 0.00 | 0.00 | 85 | 1020.7 |
| 20260508064814 | 60 | 86 | 0.0 | 0.0 | 0.00 | 0.00 | 0.00 | 84 | 1020.7 |
| 20260508064312 | 60 | 191 | 0.0 | 0.0 | 0.00 | 0.00 | 0.00 | 83 | 1020.8 |
| 20260508063809 | 60 | 213 | 0.0 | 0.0 | 0.00 | 0.00 | 0.00 | 83 | 1021.0 |
| 20260508063307 | 60 | 223 | 0.0 | 0.0 | 0.00 | 0.00 | 0.00 | 84 | 1020.8 |
| 20260508062804 | 60 | 189 | 0.0 | 0.0 | 0.00 | 0.00 | 0.00 | 84 | 1020.9 |
| 20260508062305 | 60 | 164 | 0.0 | 0.0 | 0.00 | 0.00 | 0.00 | 84 | 1021.0 |
| 20260508061758 | 60 | 182 | 0.0 | 0.0 | 0.00 | 0.00 | 0.00 | 84 | 1020.7 |
| 20260508061255 | 60 | 213 | 0.0 | 0.0 | 0.00 | 0.00 | 0.00 | 83 | 1021.0 |
| 20260508060752 | 60 | 128 | 0.0 | 0.0 | 0.00 | 0.00 | 0.00 | 83 | 1020.7 |
| 20260508060250 | 60 | 91 | 0.0 | 0.0 | 0.00 | 0.00 | 0.00 | 82 | 1020.6 |
| 20260508055745 | 60 | 191 | 0.0 | 0.0 | 0.00 | 0.00 | 0.00 | 82 | 1020.8 |
| 20260508055242 | 61 | 143 | 0.0 | 0.0 | 0.00 | 0.00 | 0.00 | 81 | 1020.5 |
| 20260508054739 | 61 | 93 | 0.0 | 0.0 | 0.00 | 0.00 | 0.00 | 81 | 1020.5 |
| 20260508054237 | 61 | 118 | 0.0 | 0.0 | 0.00 | 0.00 | 0.00 | 80 | 1020.6 |